Time;durP1;ratioP1;P1;durP2;ratioP2;P2;SDS_P1;SDS_P2;PMS_P1;PMS_P2;Temp;Humidity;BMP_temperature;BMP_pressure;BME280_temperature;BME280_humidity;BME280_pressure;Samples;Min_cycle;Max_cycle;Signal;HPM_P1;HPM_P2
2023/03/21 00:02:03;;;;;;;7.93;4.90;;;;;;;9.17;100.00;99271.59;5010279;28;20214;-78
2023/03/21 00:04:31;;;;;;;7.83;4.97;;;;;;;8.99;100.00;99280.56;5001354;28;20230;-78
2023/03/21 00:07:20;;;;;;;8.97;4.90;;;;;;;8.98;100.00;99268.28;5000431;28;20193;-78
2023/03/21 00:09:48;;;;;;;8.80;5.20;;;;;;;8.93;100.00;99272.94;5053753;28;20259;-78
2023/03/21 00:12:19;;;;;;;9.27;5.33;;;;;;;9.01;100.00;99264.59;5052256;28;20201;-78
2023/03/21 00:14:47;;;;;;;8.40;5.67;;;;;;;8.95;100.00;99260.50;5044758;28;20203;-79
2023/03/21 00:17:16;;;;;;;8.63;5.00;;;;;;;9.00;100.00;99262.91;5049750;28;20258;-78
2023/03/21 00:19:45;;;;;;;9.63;5.10;;;;;;;9.10;100.00;99269.38;5052958;28;20196;-80
2023/03/21 00:22:13;;;;;;;10.00;5.30;;;;;;;9.11;100.00;99265.78;5015764;28;20232;-80
2023/03/21 00:24:44;;;;;;;10.00;5.23;;;;;;;8.99;100.00;99259.41;5053828;28;20749;-78
2023/03/21 00:27:12;;;;;;;8.10;5.40;;;;;;;9.12;100.00;99259.56;5048633;28;20212;-78
2023/03/21 00:30:00;;;;;;;11.10;5.33;;;;;;;9.08;100.00;99261.53;5051561;28;20215;-80
2023/03/21 00:32:29;;;;;;;9.93;5.30;;;;;;;9.03;100.00;99253.00;5056355;28;20230;-78
2023/03/21 00:34:58;;;;;;;8.47;5.77;;;;;;;8.95;100.00;99255.22;5066524;28;20205;-80
2023/03/21 00:37:47;;;;;;;9.70;5.87;;;;;;;8.80;100.00;99246.38;5072464;28;20196;-79
2023/03/21 00:40:19;;;;;;;10.67;5.93;;;;;;;8.83;100.00;99253.28;5064600;28;20192;-80
2023/03/21 00:42:55;;;;;;;9.07;5.27;;;;;;;8.82;100.00;99248.94;5072939;28;20366;-80
2023/03/21 00:45:25;;;;;;;10.20;5.77;;;;;;;8.83;100.00;99242.72;5068415;28;20467;-78
2023/03/21 00:47:53;;;;;;;10.50;6.20;;;;;;;8.86;100.00;99246.00;5072729;28;20188;-81
2023/03/21 00:50:22;;;;;;;8.63;5.40;;;;;;;8.92;100.00;99242.19;5067132;28;20192;-80
2023/03/21 00:52:50;;;;;;;8.30;5.13;;;;;;;8.91;100.00;99243.13;5067809;28;20193;-80
2023/03/21 00:55:20;;;;;;;7.47;5.00;;;;;;;8.90;100.00;99228.22;5063595;28;20231;-80
2023/03/21 00:57:48;;;;;;;7.47;5.60;;;;;;;8.86;100.00;99239.88;5069331;28;20196;-81
2023/03/21 01:00:29;;;;;;;13.43;5.80;;;;;;;8.84;100.00;99229.41;5069648;28;20188;-81
2023/03/21 01:03:04;;;;;;;11.40;5.87;;;;;;;8.89;100.00;99227.38;5068969;28;20192;-80
2023/03/21 01:06:04;;;;;;;9.20;6.20;;;;;;;8.89;100.00;99232.66;5072300;28;20216;-80
2023/03/21 01:08:35;;;;;;;12.90;6.63;;;;;;;8.88;100.00;99230.97;5072608;28;20196;-80
2023/03/21 01:11:22;;;;;;;9.93;6.00;;;;;;;8.84;100.00;99225.91;5070220;28;20227;-80
2023/03/21 01:13:52;;;;;;;10.90;6.33;;;;;;;8.77;100.00;99229.84;5072575;28;20228;-80
2023/03/21 01:16:34;;;;;;;12.70;6.20;;;;;;;8.93;100.00;99227.19;5069003;28;20204;-80
2023/03/21 01:19:05;;;;;;;8.87;5.73;;;;;;;8.94;100.00;99229.75;5067045;28;20223;-79
2023/03/21 01:21:39;;;;;;;9.60;5.77;;;;;;;8.88;100.00;99227.47;5070607;28;20189;-80
2023/03/21 01:24:08;;;;;;;11.77;6.07;;;;;;;8.85;100.00;99228.47;5070287;28;20224;-80
2023/03/21 01:26:38;;;;;;;9.67;6.57;;;;;;;8.96;100.00;99224.38;4996272;28;20203;-80
2023/03/21 01:29:06;;;;;;;11.53;6.40;;;;;;;8.82;100.00;99230.44;4974735;28;20215;-80
2023/03/21 01:31:35;;;;;;;11.20;5.40;;;;;;;8.76;100.00;99228.13;4987250;28;20202;-80
2023/03/21 01:34:03;;;;;;;10.07;5.70;;;;;;;8.83;100.00;99227.72;4994388;28;20227;-80
2023/03/21 01:36:32;;;;;;;11.30;6.03;;;;;;;8.80;100.00;99217.31;4991968;28;20202;-81
2023/03/21 01:39:01;;;;;;;10.63;5.93;;;;;;;8.82;100.00;99225.16;4990641;28;20253;-80
2023/03/21 01:41:31;;;;;;;10.50;6.03;;;;;;;8.80;100.00;99213.84;4994798;28;20203;-80
2023/03/21 01:44:15;;;;;;;8.70;5.70;;;;;;;8.77;100.00;99221.91;5011727;28;20216;-78
2023/03/21 01:46:48;;;;;;;8.93;5.70;;;;;;;8.83;100.00;99219.78;5066541;28;20211;-81
2023/03/21 01:49:39;;;;;;;10.87;5.73;;;;;;;8.81;100.00;99223.47;5073546;28;20227;-80
2023/03/21 01:52:11;;;;;;;13.70;5.90;;;;;;;8.77;100.00;99216.63;5067354;28;20279;-80
2023/03/21 01:54:57;;;;;;;11.90;5.43;;;;;;;8.80;100.00;99205.91;5073548;28;20203;-80
2023/03/21 01:57:31;;;;;;;9.13;5.50;;;;;;;8.78;100.00;99213.03;5063160;28;20212;-80
2023/03/21 02:00:17;;;;;;;12.00;6.13;;;;;;;8.76;100.00;99202.56;5070748;28;20223;-81
2023/03/21 02:02:54;;;;;;;8.90;5.73;;;;;;;8.84;100.00;99200.34;5024549;28;20203;-81
2023/03/21 02:05:33;;;;;;;12.97;5.63;;;;;;;8.78;100.00;99199.84;5072583;28;20213;-80
2023/03/21 02:08:02;;;;;;;9.43;5.53;;;;;;;8.70;100.00;99200.28;5067109;28;20199;-81
2023/03/21 02:10:32;;;;;;;9.47;5.67;;;;;;;8.64;100.00;99195.34;5066259;28;20200;-81
2023/03/21 02:13:08;;;;;;;9.07;5.23;;;;;;;8.70;100.00;99194.16;5070210;28;20203;-80
2023/03/21 02:15:41;;;;;;;9.70;5.93;;;;;;;8.45;100.00;99198.16;5071085;28;20192;-80
2023/03/21 02:18:15;;;;;;;9.30;5.77;;;;;;;8.46;100.00;99188.44;5075350;28;20192;-80
2023/03/21 02:21:25;;;;;;;7.67;5.10;;;;;;;8.58;100.00;99187.75;5070191;28;20196;-80
2023/03/21 02:24:23;;;;;;;14.33;5.47;;;;;;;8.69;100.00;99184.53;5049026;28;20208;-80
2023/03/21 02:27:05;;;;;;;9.90;5.27;;;;;;;8.68;100.00;99180.16;4993821;28;20198;-80
2023/03/21 02:30:03;;;;;;;11.53;5.70;;;;;;;8.68;100.00;99180.16;5074602;28;20273;-80
2023/03/21 02:32:50;;;;;;;7.43;5.40;;;;;;;8.69;100.00;99179.25;5074656;28;20235;-80
2023/03/21 02:35:34;;;;;;;12.30;5.50;;;;;;;8.68;100.00;99172.25;5071341;28;20359;-80
2023/03/21 02:38:12;;;;;;;11.37;5.13;;;;;;;8.72;100.00;99184.34;5069305;28;20208;-81
2023/03/21 02:40:47;;;;;;;8.53;5.60;;;;;;;8.65;100.00;99180.34;5074768;28;20204;-80
2023/03/21 02:43:21;;;;;;;11.77;5.80;;;;;;;8.68;100.00;99178.38;5074553;28;20198;-80
2023/03/21 02:45:58;;;;;;;10.73;5.27;;;;;;;8.62;100.00;99176.09;5067022;28;20291;-80
2023/03/21 02:48:32;;;;;;;10.00;5.50;;;;;;;8.85;100.00;99164.22;5067510;28;20192;-80
2023/03/21 02:51:19;;;;;;;12.53;6.03;;;;;;;8.77;100.00;99169.09;5074997;28;20200;-80
2023/03/21 02:53:54;;;;;;;10.17;5.47;;;;;;;8.81;100.00;99174.13;5068078;28;20196;-79
2023/03/21 02:56:44;;;;;;;7.73;5.53;;;;;;;8.85;100.00;99165.09;5074896;28;20192;-80
2023/03/21 02:59:15;;;;;;;11.27;5.63;;;;;;;8.74;100.00;99175.41;5074636;28;20628;-80
2023/03/21 03:01:43;;;;;;;9.33;5.67;;;;;;;8.62;100.00;99173.47;5067576;28;20196;-80
2023/03/21 03:04:20;;;;;;;10.33;5.73;;;;;;;8.71;100.00;99166.81;5072349;28;20238;-80
2023/03/21 03:07:06;;;;;;;7.53;5.93;;;;;;;8.73;100.00;99165.78;5074621;28;20238;-80
2023/03/21 03:09:49;;;;;;;9.60;6.10;;;;;;;8.63;100.00;99163.75;5068789;28;20207;-80
2023/03/21 03:12:32;;;;;;;8.87;5.87;;;;;;;8.64;100.00;99160.16;5073640;28;20226;-80
2023/03/21 03:15:16;;;;;;;12.17;6.13;;;;;;;8.76;100.00;99148.91;5072796;28;20196;-80
2023/03/21 03:17:52;;;;;;;13.40;6.07;;;;;;;8.56;100.00;99155.31;5065695;28;20223;-80
2023/03/21 03:20:37;;;;;;;11.33;5.63;;;;;;;8.47;100.00;99161.09;5073684;28;20246;-80
2023/03/21 03:23:20;;;;;;;14.13;5.93;;;;;;;8.55;100.00;99153.59;5067847;28;20287;-80
2023/03/21 03:25:57;;;;;;;9.40;5.97;;;;;;;8.56;100.00;99157.94;5067626;28;20220;-80
2023/03/21 03:28:30;;;;;;;11.87;6.37;;;;;;;8.62;100.00;99154.97;5071059;28;20332;-80
2023/03/21 03:31:02;;;;;;;10.60;5.70;;;;;;;8.58;100.00;99150.78;5072783;28;20192;-80
2023/03/21 03:33:40;;;;;;;9.90;5.80;;;;;;;8.53;100.00;99152.84;5066177;28;20232;-80
2023/03/21 03:36:12;;;;;;;8.97;5.93;;;;;;;8.60;100.00;99154.22;5031937;28;20261;-80
2023/03/21 03:39:03;;;;;;;11.60;5.87;;;;;;;8.51;100.00;99163.50;5073763;28;20188;-79
2023/03/21 03:41:37;;;;;;;11.47;6.10;;;;;;;8.38;100.00;99151.06;5070365;28;20246;-80
2023/03/21 03:44:27;;;;;;;9.50;5.83;;;;;;;8.36;100.00;99153.78;5073491;28;20256;-81
2023/03/21 03:47:00;;;;;;;10.13;6.13;;;;;;;8.51;100.00;99155.59;5067860;28;20256;-80
2023/03/21 03:49:33;;;;;;;10.57;6.07;;;;;;;8.45;100.00;99161.19;5068283;28;20204;-81
2023/03/21 03:52:06;;;;;;;10.50;6.43;;;;;;;8.39;100.00;99152.75;5068266;28;20325;-80
2023/03/21 03:54:38;;;;;;;10.47;6.57;;;;;;;8.40;100.00;99152.69;5073294;28;20192;-80
2023/03/21 03:57:10;;;;;;;11.47;6.17;;;;;;;8.46;100.00;99157.59;5069997;28;20223;-80
2023/03/21 03:59:40;;;;;;;10.60;6.43;;;;;;;8.57;100.00;99154.38;5067523;28;20191;-81
2023/03/21 04:02:10;;;;;;;12.03;6.67;;;;;;;8.55;100.00;99150.97;5073405;28;20188;-80
2023/03/21 04:04:40;;;;;;;10.97;6.63;;;;;;;8.55;100.00;99148.34;5065947;28;20681;-80
2023/03/21 04:07:10;;;;;;;10.97;6.00;;;;;;;8.43;100.00;99147.22;5073078;28;20216;-80
2023/03/21 04:09:38;;;;;;;11.30;6.47;;;;;;;8.43;100.00;99147.22;5068358;28;20253;-80
2023/03/21 04:12:14;;;;;;;10.43;6.47;;;;;;;8.43;100.00;99139.31;5070358;28;20242;-81
2023/03/21 04:14:43;;;;;;;11.07;6.37;;;;;;;8.36;100.00;99148.50;5070393;28;20242;-80
2023/03/21 04:17:14;;;;;;;12.43;6.07;;;;;;;8.31;100.00;99137.34;5071136;28;20211;-81
2023/03/21 04:19:44;;;;;;;10.70;6.10;;;;;;;8.18;100.00;99133.66;5060438;28;20196;-80
2023/03/21 04:22:12;;;;;;;8.90;5.70;;;;;;;8.22;100.00;99135.19;5064915;28;20192;-80
2023/03/21 04:24:41;;;;;;;10.33;6.27;;;;;;;8.12;100.00;99136.63;5008408;28;20249;-80
2023/03/21 04:27:10;;;;;;;12.87;6.10;;;;;;;8.24;100.00;99136.81;5011135;28;20248;-80
2023/03/21 04:29:42;;;;;;;10.43;6.37;;;;;;;8.20;100.00;99131.75;5006590;28;20194;-80
2023/03/21 04:32:15;;;;;;;13.03;5.70;;;;;;;8.01;100.00;99126.66;5010706;28;20289;-80
2023/03/21 04:34:48;;;;;;;9.57;6.60;;;;;;;7.98;100.00;99135.56;5002663;28;20202;-81
2023/03/21 04:37:17;;;;;;;9.63;6.00;;;;;;;7.83;100.00;99120.59;5008411;28;20298;-81
2023/03/21 04:39:47;;;;;;;10.87;6.27;;;;;;;8.01;100.00;99131.94;5007382;28;20231;-81
2023/03/21 04:42:19;;;;;;;11.07;6.60;;;;;;;7.91;100.00;99134.22;5012307;28;20205;-81
2023/03/21 04:44:49;;;;;;;8.87;5.83;;;;;;;7.86;100.00;99132.75;5047885;28;20189;-80
2023/03/21 04:47:20;;;;;;;12.37;7.07;;;;;;;8.09;100.00;99131.50;5047624;28;20216;-81
2023/03/21 04:49:49;;;;;;;10.40;6.30;;;;;;;8.06;100.00;99123.75;5052108;28;20201;-81
2023/03/21 04:52:17;;;;;;;9.97;6.27;;;;;;;8.07;100.00;99122.81;5050037;28;21256;-81
2023/03/21 04:54:46;;;;;;;10.03;5.97;;;;;;;8.11;100.00;99114.69;5043363;28;20227;-81
2023/03/21 04:57:15;;;;;;;11.77;6.23;;;;;;;7.95;100.00;99117.28;5048221;28;20197;-81
2023/03/21 04:59:43;;;;;;;12.43;6.60;;;;;;;8.10;100.00;99117.38;5047588;28;20200;-81
2023/03/21 05:02:14;;;;;;;11.33;5.93;;;;;;;8.14;100.00;99117.13;5052358;28;20262;-80
2023/03/21 05:04:42;;;;;;;12.50;5.60;;;;;;;8.06;100.00;99116.69;5045802;28;20200;-81
2023/03/21 05:07:13;;;;;;;11.50;6.47;;;;;;;7.99;100.00;99099.50;5050165;28;20741;-81
2023/03/21 05:09:41;;;;;;;11.17;5.90;;;;;;;7.92;100.00;99109.56;5047717;28;20204;-81
2023/03/21 05:12:10;;;;;;;10.77;6.50;;;;;;;7.85;100.00;99105.53;5050059;28;20216;-80
2023/03/21 05:14:38;;;;;;;10.90;6.10;;;;;;;7.89;100.00;99108.84;5051093;28;20287;-80
2023/03/21 05:17:06;;;;;;;12.47;7.97;;;;;;;7.96;100.00;99115.50;4990935;28;20242;-80
2023/03/21 05:19:39;;;;;;;10.50;6.57;;;;;;;8.05;100.00;99107.09;4987793;28;20191;-80
2023/03/21 05:22:10;;;;;;;12.77;6.13;;;;;;;7.92;100.00;99108.69;4985652;28;20286;-80
2023/03/21 05:24:40;;;;;;;10.93;6.20;;;;;;;7.92;100.00;99112.19;4985636;28;20187;-80
2023/03/21 05:27:09;;;;;;;11.70;5.73;;;;;;;7.95;100.00;99108.53;4987054;28;20223;-80
2023/03/21 05:29:38;;;;;;;9.13;6.00;;;;;;;7.98;100.00;99110.97;4982552;28;20199;-80
2023/03/21 05:32:06;;;;;;;13.40;5.83;;;;;;;7.91;100.00;99113.13;4982311;28;20289;-80
2023/03/21 05:34:34;;;;;;;11.93;5.90;;;;;;;7.90;100.00;99116.66;5000930;28;20264;-81
2023/03/21 05:37:05;;;;;;;9.53;5.40;;;;;;;7.95;100.00;99119.94;5047701;28;20197;-81
2023/03/21 05:39:33;;;;;;;8.60;5.50;;;;;;;7.90;100.00;99115.81;5043907;28;20205;-81
2023/03/21 05:42:02;;;;;;;9.63;5.13;;;;;;;7.83;100.00;99109.19;5042961;28;20221;-81
2023/03/21 05:44:30;;;;;;;12.57;6.03;;;;;;;7.80;100.00;99107.56;5014575;28;20193;-81
2023/03/21 05:46:59;;;;;;;11.13;5.63;;;;;;;7.81;100.00;99103.13;5046949;28;20223;-80
2023/03/21 05:49:27;;;;;;;13.47;5.30;;;;;;;7.77;100.00;99118.28;5049118;28;20262;-80
2023/03/21 05:51:56;;;;;;;9.27;6.77;;;;;;;7.87;100.00;99114.22;5044402;28;20196;-80
2023/03/21 05:54:26;;;;;;;12.57;6.87;;;;;;;7.85;100.00;99118.72;5042902;28;20228;-80
2023/03/21 05:56:55;;;;;;;11.63;6.60;;;;;;;7.80;100.00;99115.47;5049225;28;20196;-80
2023/03/21 05:59:26;;;;;;;13.80;6.57;;;;;;;7.85;100.00;99117.88;5047574;28;20204;-80
2023/03/21 06:01:55;;;;;;;9.80;6.33;;;;;;;7.80;100.00;99118.09;5054258;28;20227;-81
2023/03/21 06:04:26;;;;;;;9.93;6.40;;;;;;;7.84;100.00;99118.81;5053375;28;20191;-80
2023/03/21 06:06:55;;;;;;;11.27;6.23;;;;;;;7.96;100.00;99121.63;5049043;28;20213;-80
2023/03/21 06:09:26;;;;;;;11.10;6.07;;;;;;;7.98;100.00;99116.25;5047265;28;20208;-81
2023/03/21 06:11:56;;;;;;;9.23;6.07;;;;;;;7.90;100.00;99110.53;5053317;28;20193;-80
2023/03/21 06:14:26;;;;;;;11.43;6.40;;;;;;;8.00;100.00;99115.22;5053851;28;20193;-81
2023/03/21 06:16:54;;;;;;;10.43;5.53;;;;;;;8.06;100.00;99121.13;5012484;28;20194;-80
2023/03/21 06:19:25;;;;;;;12.40;6.00;;;;;;;8.16;100.00;99132.88;5008674;28;20234;-80
2023/03/21 06:21:53;;;;;;;12.00;6.17;;;;;;;8.18;100.00;99131.84;5001984;28;20210;-80
2023/03/21 06:24:23;;;;;;;10.63;5.93;;;;;;;8.02;100.00;99133.66;5009536;28;20199;-80
2023/03/21 06:26:52;;;;;;;12.50;6.13;;;;;;;8.22;100.00;99136.03;5010974;28;20265;-80
2023/03/21 06:29:21;;;;;;;7.10;5.33;;;;;;;8.27;100.00;99131.34;5006189;28;20192;-80
2023/03/21 06:31:50;;;;;;;10.53;5.90;;;;;;;8.24;100.00;99130.69;5005465;28;20302;-80
2023/03/21 06:34:18;;;;;;;7.73;5.63;;;;;;;8.35;100.00;99135.41;4981907;28;20229;-80
2023/03/21 06:36:47;;;;;;;11.47;6.83;;;;;;;8.38;100.00;99133.44;5028629;28;20224;-80
2023/03/21 06:39:16;;;;;;;13.13;6.73;;;;;;;8.38;100.00;99138.69;5026217;28;20232;-80
2023/03/21 06:41:44;;;;;;;8.63;6.27;;;;;;;8.45;100.00;99129.53;5020476;28;20301;-81
2023/03/21 06:44:16;;;;;;;8.80;6.17;;;;;;;8.59;100.00;99134.03;5027694;28;20206;-80
2023/03/21 06:46:44;;;;;;;9.67;6.03;;;;;;;8.51;100.00;99133.63;5027887;28;20680;-80
2023/03/21 06:49:13;;;;;;;13.53;6.70;;;;;;;8.59;100.00;99132.25;5030139;28;20205;-80
2023/03/21 06:51:41;;;;;;;13.20;6.43;;;;;;;8.68;100.00;99133.50;5031667;28;20315;-80
2023/03/21 06:54:13;;;;;;;11.90;6.57;;;;;;;8.60;100.00;99133.09;5048671;28;20195;-80
2023/03/21 06:56:41;;;;;;;13.50;6.20;;;;;;;8.71;100.00;99135.13;5034263;28;20304;-81
2023/03/21 06:59:09;;;;;;;14.50;6.10;;;;;;;8.79;100.00;99139.03;5051725;28;20193;-80
2023/03/21 07:01:39;;;;;;;10.67;6.10;;;;;;;8.69;100.00;99134.38;5053163;28;20204;-80
2023/03/21 07:04:08;;;;;;;7.90;5.90;;;;;;;8.73;100.00;99134.09;5054080;28;20189;-80
2023/03/21 07:06:37;;;;;;;10.77;6.50;;;;;;;8.75;100.00;99128.72;5053228;28;20251;-80
2023/03/21 07:09:06;;;;;;;9.97;5.73;;;;;;;8.88;100.00;99124.47;5054017;28;20243;-80
2023/03/21 07:11:36;;;;;;;9.50;6.50;;;;;;;8.91;100.00;99129.56;5051617;28;20193;-80
2023/03/21 07:14:06;;;;;;;12.43;6.47;;;;;;;8.93;100.00;99124.19;5050510;28;20200;-80
2023/03/21 07:16:35;;;;;;;9.27;6.13;;;;;;;8.84;100.00;99129.06;5052874;28;20209;-80
2023/03/21 07:19:06;;;;;;;9.00;5.93;;;;;;;8.95;100.00;99131.06;5047446;28;20357;-80
2023/03/21 07:21:34;;;;;;;14.17;6.60;;;;;;;8.79;100.00;99132.91;5048243;28;20209;-80
2023/03/21 07:24:03;;;;;;;12.00;6.50;;;;;;;8.82;100.00;99124.81;5052658;28;20247;-80
2023/03/21 07:26:31;;;;;;;13.97;7.53;;;;;;;9.03;100.00;99123.56;5052638;28;20640;-80
2023/03/21 07:28:59;;;;;;;11.93;7.43;;;;;;;9.05;100.00;99128.75;5052622;28;20221;-80
2023/03/21 07:31:28;;;;;;;10.13;6.10;;;;;;;9.11;100.00;99138.97;5048761;28;20292;-80
2023/03/21 07:33:56;;;;;;;11.80;6.60;;;;;;;9.23;100.00;99125.03;5066297;28;20309;-80
2023/03/21 07:36:27;;;;;;;9.80;6.23;;;;;;;9.12;100.00;99119.53;5073770;28;20195;-80
2023/03/21 07:38:55;;;;;;;9.07;6.20;;;;;;;9.25;100.00;99119.66;5064004;28;20204;-80
2023/03/21 07:41:24;;;;;;;13.10;6.93;;;;;;;9.09;100.00;99123.22;5072139;28;20200;-80
2023/03/21 07:43:52;;;;;;;10.23;6.60;;;;;;;9.14;100.00;99126.41;5068417;28;20200;-80
2023/03/21 07:46:20;;;;;;;12.57;7.10;;;;;;;9.41;100.00;99125.72;5069357;28;20226;-80
2023/03/21 07:48:49;;;;;;;11.23;6.40;;;;;;;9.55;100.00;99120.44;5068571;28;20724;-80
2023/03/21 07:51:19;;;;;;;11.27;7.37;;;;;;;9.53;100.00;99122.34;5070849;28;20184;-80
2023/03/21 07:53:49;;;;;;;12.83;7.47;;;;;;;9.65;100.00;99113.69;5069259;28;20257;-80
2023/03/21 07:56:17;;;;;;;11.07;6.70;;;;;;;9.67;100.00;99114.44;5062899;28;20250;-80
2023/03/21 07:58:45;;;;;;;15.57;9.37;;;;;;;9.64;100.00;99121.69;5069001;28;20212;-80
2023/03/21 08:01:14;;;;;;;21.37;12.27;;;;;;;9.55;100.00;99117.81;5063136;28;20196;-80
2023/03/21 08:03:43;;;;;;;12.43;7.60;;;;;;;9.54;100.00;99118.75;5070103;28;20200;-80
2023/03/21 08:06:11;;;;;;;12.87;7.47;;;;;;;9.56;100.00;99126.63;5067731;28;20266;-80
2023/03/21 08:08:40;;;;;;;10.67;7.17;;;;;;;9.52;100.00;99117.16;5068374;28;20243;-80
2023/03/21 08:11:11;;;;;;;10.83;7.33;;;;;;;9.52;100.00;99123.28;5070200;28;20242;-80
2023/03/21 08:13:39;;;;;;;10.53;6.80;;;;;;;9.45;100.00;99128.09;5067511;28;20195;-80
2023/03/21 08:16:09;;;;;;;11.87;7.13;;;;;;;9.42;100.00;99127.44;5068781;28;20204;-81
2023/03/21 08:18:37;;;;;;;10.30;6.90;;;;;;;9.58;100.00;99127.38;5066557;28;20202;-81
2023/03/21 08:21:06;;;;;;;11.00;7.53;;;;;;;9.61;100.00;99122.75;5067427;28;20253;-80
2023/03/21 08:23:36;;;;;;;13.43;7.57;;;;;;;9.59;100.00;99123.78;5066162;28;20470;-80
2023/03/21 08:26:05;;;;;;;13.13;7.57;;;;;;;9.72;100.00;99124.72;5072979;28;20218;-80
2023/03/21 08:28:38;;;;;;;13.37;7.33;;;;;;;9.84;100.00;99117.81;5067584;28;20212;-80
2023/03/21 08:31:09;;;;;;;14.10;7.00;;;;;;;9.88;100.00;99124.66;5062681;28;20200;-80
2023/03/21 08:33:39;;;;;;;11.00;6.80;;;;;;;10.01;100.00;99113.19;4978418;28;20333;-80
2023/03/21 08:36:08;;;;;;;12.03;6.87;;;;;;;10.00;100.00;99118.59;5010851;28;20678;-80
2023/03/21 08:38:37;;;;;;;10.77;6.80;;;;;;;10.08;100.00;99118.13;5008573;28;20194;-80
2023/03/21 08:41:06;;;;;;;10.73;6.73;;;;;;;10.12;100.00;99117.81;5007331;28;20194;-80
2023/03/21 08:43:36;;;;;;;10.93;6.63;;;;;;;10.04;100.00;99125.41;5010991;28;20202;-80
2023/03/21 08:46:06;;;;;;;14.03;7.47;;;;;;;9.97;100.00;99124.09;5008298;28;20229;-80
2023/03/21 08:48:37;;;;;;;9.63;6.67;;;;;;;10.09;100.00;99125.09;4932940;29;20225;-81
2023/03/21 08:51:07;;;;;;;15.80;7.27;;;;;;;10.20;100.00;99128.78;4941724;28;20198;-80
2023/03/21 08:53:35;;;;;;;11.03;7.17;;;;;;;10.04;100.00;99128.91;4970802;28;20250;-80
2023/03/21 08:56:03;;;;;;;10.07;6.13;;;;;;;10.09;100.00;99120.66;4986023;28;20272;-81
2023/03/21 08:58:32;;;;;;;10.40;7.03;;;;;;;10.18;100.00;99128.03;4991306;28;20230;-80
2023/03/21 09:01:03;;;;;;;12.80;7.03;;;;;;;10.17;100.00;99118.38;4982634;28;20210;-80
2023/03/21 09:03:31;;;;;;;11.87;6.87;;;;;;;10.34;100.00;99122.66;4985043;28;20258;-81
2023/03/21 09:06:01;;;;;;;11.30;7.17;;;;;;;10.45;100.00;99120.16;5000421;28;20231;-80
2023/03/21 09:08:30;;;;;;;11.10;6.87;;;;;;;10.25;100.00;99120.59;5069500;28;20231;-81
2023/03/21 09:10:58;;;;;;;13.23;6.77;;;;;;;10.47;100.00;99122.72;5063626;28;20192;-81
2023/03/21 09:13:27;;;;;;;11.77;7.20;;;;;;;10.42;100.00;99119.50;5069484;28;20202;-80
2023/03/21 09:15:56;;;;;;;11.10;6.70;;;;;;;10.74;100.00;99112.13;5063046;28;20246;-81
2023/03/21 09:18:37;;;;;;;11.83;7.30;;;;;;;10.78;100.00;99113.63;5064998;28;20204;-81
2023/03/21 09:21:11;;;;;;;9.70;6.83;;;;;;;10.91;100.00;99114.53;5072275;28;20249;-81
2023/03/21 09:23:40;;;;;;;11.37;6.80;;;;;;;10.88;100.00;99115.56;5067347;28;20203;-80
2023/03/21 09:26:09;;;;;;;13.60;7.30;;;;;;;10.99;100.00;99112.19;5069119;28;20199;-81
2023/03/21 09:28:39;;;;;;;12.70;7.23;;;;;;;11.06;100.00;99115.31;5063206;28;20208;-81
2023/03/21 09:31:11;;;;;;;9.93;6.73;;;;;;;11.05;100.00;99114.44;5068214;28;20235;-81
2023/03/21 09:33:41;;;;;;;11.37;6.87;;;;;;;11.06;100.00;99115.31;5067493;28;20243;-81
2023/03/21 09:36:12;;;;;;;13.67;7.33;;;;;;;11.11;100.00;99119.34;5007741;28;20203;-80
2023/03/21 09:38:41;;;;;;;12.77;6.67;;;;;;;11.11;100.00;99114.06;5001004;28;20202;-81
2023/03/21 09:41:26;;;;;;;13.80;7.27;;;;;;;11.14;100.00;99121.78;5002282;28;20190;-80
2023/03/21 09:44:07;;;;;;;10.33;6.63;;;;;;;11.06;100.00;99120.59;5007575;28;20310;-80
2023/03/21 09:46:43;;;;;;;12.83;7.23;;;;;;;11.14;100.00;99119.13;5010052;28;20253;-80
2023/03/21 09:49:19;;;;;;;10.87;7.20;;;;;;;11.22;100.00;99115.97;5014104;28;20724;-80
2023/03/21 09:51:52;;;;;;;12.33;7.23;;;;;;;11.18;100.00;99123.28;5009827;28;20775;-81
2023/03/21 09:54:26;;;;;;;19.23;6.63;;;;;;;11.12;100.00;99118.41;5014096;28;20191;-80
2023/03/21 09:56:58;;;;;;;12.13;7.00;;;;;;;11.30;100.00;99123.44;5006893;28;20191;-80
2023/03/21 09:59:35;;;;;;;11.80;7.00;;;;;;;11.29;100.00;99121.69;5011738;28;20200;-80
2023/03/21 10:02:11;;;;;;;13.13;7.23;;;;;;;11.31;100.00;99122.47;5070165;28;20194;-80
2023/03/21 10:04:45;;;;;;;14.10;6.87;;;;;;;11.29;100.00;99108.44;5075480;28;20249;-80
2023/03/21 10:07:17;;;;;;;13.13;7.47;;;;;;;11.40;100.00;99119.19;5072307;28;20207;-80
2023/03/21 10:09:46;;;;;;;14.17;7.60;;;;;;;11.48;100.00;99116.84;5066740;28;20215;-80
2023/03/21 10:12:20;;;;;;;12.87;7.33;;;;;;;11.35;100.00;99116.00;5071479;28;20640;-80
2023/03/21 10:14:52;;;;;;;14.07;7.63;;;;;;;11.55;100.00;99118.13;5071792;28;20279;-80
2023/03/21 10:17:32;;;;;;;11.10;7.10;;;;;;;11.56;100.00;99111.88;5073539;28;20242;-80
2023/03/21 10:20:13;;;;;;;12.00;6.77;;;;;;;11.55;100.00;99106.69;5070544;28;20202;-80
2023/03/21 10:22:46;;;;;;;12.43;7.77;;;;;;;11.66;100.00;99110.28;5072402;28;20237;-81
2023/03/21 10:25:19;;;;;;;13.73;7.37;;;;;;;11.50;100.00;99109.66;5076250;28;20709;-80
2023/03/21 10:27:50;;;;;;;13.77;7.73;;;;;;;11.55;100.00;99110.19;5068743;28;20192;-80
2023/03/21 10:30:30;;;;;;;11.60;7.67;;;;;;;11.73;100.00;99106.25;5071030;28;20695;-80
2023/03/21 10:33:04;;;;;;;12.60;8.13;;;;;;;11.28;100.00;99104.94;5069951;28;20228;-81
2023/03/21 10:35:35;;;;;;;15.20;8.47;;;;;;;11.49;100.00;99107.13;5067517;28;20282;-80
2023/03/21 10:38:06;;;;;;;12.20;8.87;;;;;;;11.56;100.00;99109.22;5072140;28;20206;-80
2023/03/21 10:40:35;;;;;;;13.73;8.23;;;;;;;11.23;100.00;99104.41;5070360;28;20560;-81
2023/03/21 10:43:36;;;;;;;13.97;8.27;;;;;;;11.10;100.00;99116.81;5066567;28;20197;-80
2023/03/21 10:46:12;;;;;;;15.30;8.60;;;;;;;11.31;100.00;99103.91;5069228;28;20202;-80
2023/03/21 10:48:44;;;;;;;15.47;8.23;;;;;;;11.56;100.00;99106.56;5073991;28;20207;-77
2023/03/21 10:51:20;;;;;;;13.93;8.37;;;;;;;11.34;100.00;99103.69;5073861;28;20200;-78
2023/03/21 10:53:53;;;;;;;12.27;7.90;;;;;;;11.49;100.00;99102.66;5066767;28;20200;-78
2023/03/21 10:56:26;;;;;;;15.90;8.00;;;;;;;11.52;100.00;99102.44;5072319;28;20192;-78
2023/03/21 10:58:58;;;;;;;15.03;8.47;;;;;;;11.56;100.00;99101.25;5074771;28;20643;-80
2023/03/21 11:01:33;;;;;;;19.10;8.23;;;;;;;11.39;100.00;99107.75;5070121;28;20212;-80
2023/03/21 11:04:08;;;;;;;12.80;7.87;;;;;;;11.39;100.00;99110.41;5074180;28;20224;-80
2023/03/21 11:06:41;;;;;;;16.80;9.43;;;;;;;11.13;100.00;99113.94;5074083;28;20217;-80
2023/03/21 11:09:16;;;;;;;15.53;8.27;;;;;;;11.10;100.00;99119.47;5065072;28;20193;-80
2023/03/21 11:11:51;;;;;;;15.97;8.17;;;;;;;10.85;100.00;99126.38;5071293;28;20199;-80
2023/03/21 11:14:33;;;;;;;15.97;7.73;;;;;;;11.06;100.00;99120.59;5070775;28;20207;-80
2023/03/21 11:17:01;;;;;;;19.47;8.67;;;;;;;10.98;100.00;99122.91;5074030;28;20655;-80
2023/03/21 11:19:32;;;;;;;15.13;8.40;;;;;;;10.95;100.00;99116.00;5069795;28;20279;-80
2023/03/21 11:22:07;;;;;;;16.80;8.77;;;;;;;10.96;100.00;99122.16;5070948;28;20709;-80
2023/03/21 11:24:36;;;;;;;14.93;8.93;;;;;;;11.10;100.00;99124.75;5068121;28;20204;-80
2023/03/21 11:27:07;;;;;;;18.00;9.30;;;;;;;11.07;100.00;99114.34;5074159;28;20193;-78
2023/03/21 11:29:39;;;;;;;14.00;8.67;;;;;;;11.25;100.00;99113.13;5065435;28;20220;-80
2023/03/21 11:32:12;;;;;;;18.10;8.70;;;;;;;11.24;100.00;99116.72;5073722;28;20620;-81
2023/03/21 11:34:48;;;;;;;17.83;9.23;;;;;;;11.17;100.00;99120.72;5069082;28;20306;-80
2023/03/21 11:37:26;;;;;;;18.20;13.97;;;;;;;11.20;100.00;99123.19;5073545;28;20697;-80
2023/03/21 11:39:59;;;;;;;16.50;9.33;;;;;;;11.20;100.00;99120.56;5073495;28;20188;-80
2023/03/21 11:42:30;;;;;;;17.40;8.63;;;;;;;11.29;100.00;99117.28;5071812;28;20245;-81
2023/03/21 11:45:03;;;;;;;17.87;8.03;;;;;;;11.48;100.00;99111.53;5065744;28;20196;-80
2023/03/21 11:47:32;;;;;;;14.40;8.73;;;;;;;11.40;100.00;99103.28;5067534;28;20196;-80
2023/03/21 11:50:01;;;;;;;15.97;8.57;;;;;;;11.32;100.00;99102.97;5073055;28;20238;-80